Eastborough, Kansas
Current Conditions -  °F | °C
As of 6:58 PM on Tuesday 21 Oct 2014 (Local Time) from KIAB Reporting Station
Clear Clear  
Wind Chill: 72°   Ceiling: Unl
Heat Index: 72°   Visibility: 10mi
Dew Point: 60°   Wind: 6mph
Humidity: 65%   Direction: 120°ESE
Pressure: 30.02"   Gusts: NA
Location:  37.6676°N, 97.2266°W
Report Text: KIAB 212358Z AUTO 12005KT 10SM CLR 22/16 A3002 RMK AO2 SLP163 T02240155 10268 20224 55003
Loading
Personal Weather Stations






























Interactive Weather Map New forecast layout! Learn more

10-Day Weather Forecast

Advertisements
Track Severe Weather on mobile